createdAt,value
2018-12-27T00:01:33.751Z,101535.72
2018-12-27T00:06:37.534Z,101521.34
2018-12-27T00:11:41.383Z,101516.83
2018-12-27T00:16:45.147Z,101505.81
2018-12-27T00:21:48.916Z,101506.00
2018-12-27T00:26:52.703Z,101514.47
2018-12-27T00:31:56.861Z,101504.30
2018-12-27T00:37:00.970Z,101517.09
2018-12-27T00:42:05.373Z,101513.98
2018-12-27T00:47:09.519Z,101517.09
2018-12-27T00:52:13.637Z,101519.30
2018-12-27T00:57:17.811Z,101516.52
2018-12-27T01:02:21.946Z,101514.47
2018-12-27T01:07:26.080Z,101503.19
2018-12-27T01:12:30.352Z,101508.94
2018-12-27T01:17:34.805Z,101509.41
2018-12-27T01:22:38.920Z,101504.81
2018-12-27T01:27:43.095Z,101504.81
2018-12-27T01:32:47.235Z,101508.45
2018-12-27T01:37:51.377Z,101501.65
2018-12-27T01:42:55.506Z,101498.98
2018-12-27T01:47:59.628Z,101491.09
2018-12-27T01:53:03.758Z,101488.98
2018-12-27T01:58:07.954Z,101485.44
2018-12-27T02:03:12.068Z,101487.27
2018-12-27T02:08:16.188Z,101485.34
2018-12-27T02:13:20.428Z,101485.34
2018-12-27T02:18:24.546Z,101486.02
2018-12-27T02:23:28.682Z,101475.54
2018-12-27T02:28:32.800Z,101475.54
2018-12-27T02:33:36.898Z,101471.05
2018-12-27T02:38:41.138Z,101471.37
2018-12-27T02:43:45.261Z,101453.22
2018-12-27T02:48:49.361Z,101443.83
2018-12-27T02:53:53.495Z,101438.74
2018-12-27T02:58:57.627Z,101409.29
2018-12-27T03:04:01.754Z,101412.30
2018-12-27T03:09:06.338Z,101393.95
2018-12-27T03:14:10.448Z,101388.89
2018-12-27T03:19:14.585Z,101392.23
2018-12-27T03:24:18.725Z,101386.58
2018-12-27T03:29:22.826Z,101397.61
2018-12-27T03:34:26.961Z,101387.16
2018-12-27T03:39:31.096Z,101381.21
2018-12-27T03:44:35.315Z,101373.27
2018-12-27T03:49:39.549Z,101362.42
2018-12-27T03:54:43.642Z,101362.42
2018-12-27T03:59:47.813Z,101367.89
2018-12-27T04:04:51.968Z,101356.94
2018-12-27T04:09:56.074Z,101354.94
2018-12-27T04:15:06.406Z,101354.94
2018-12-27T04:20:10.243Z,101343.92
2018-12-27T04:25:14.069Z,101341.89
2018-12-27T04:30:17.871Z,101341.89
2018-12-27T04:35:21.668Z,101336.93
2018-12-27T04:40:25.446Z,101326.77
2018-12-27T04:45:29.244Z,101333.95
2018-12-27T04:50:33.046Z,101333.95
2018-12-27T04:55:36.868Z,101335.00
2018-12-27T05:00:40.652Z,101342.65
2018-12-27T05:05:44.446Z,101348.40
2018-12-27T05:10:48.240Z,101348.40
2018-12-27T05:15:52.114Z,101345.16
2018-12-27T05:20:55.900Z,101351.19
2018-12-27T05:25:59.760Z,101351.19
2018-12-27T05:31:03.579Z,101352.45
2018-12-27T05:36:07.364Z,101331.17
2018-12-27T05:41:11.168Z,101343.43
2018-12-27T05:46:14.994Z,101349.97
2018-12-27T05:51:18.781Z,101342.19
2018-12-27T05:56:22.591Z,101342.19
2018-12-27T06:01:26.387Z,101334.60
2018-12-27T06:06:30.190Z,101328.95
2018-12-27T06:11:33.970Z,101328.95
2018-12-27T06:16:37.744Z,101335.37
2018-12-27T06:21:41.543Z,101333.17
2018-12-27T06:26:45.340Z,101329.52
2018-12-27T06:31:49.128Z,101329.52
2018-12-27T06:36:52.918Z,101330.41
2018-12-27T06:41:56.710Z,101330.59
2018-12-27T06:47:02.650Z,101344.11
2018-12-27T06:52:06.449Z,101336.06
2018-12-27T06:57:10.229Z,101336.06
2018-12-27T07:02:14.012Z,101322.02
2018-12-27T07:07:17.798Z,101320.02
2018-12-27T07:12:21.595Z,101310.58
2018-12-27T07:17:25.360Z,101310.58
2018-12-27T07:22:29.207Z,101310.58
2018-12-27T07:27:32.992Z,101315.69
2018-12-27T07:32:36.762Z,101311.38
2018-12-27T07:37:40.537Z,101315.23
2018-12-27T07:42:44.300Z,101315.23
2018-12-27T07:47:48.057Z,101328.59
2018-12-27T07:52:51.839Z,101329.06
2018-12-27T07:57:55.597Z,101329.06
2018-12-27T08:02:59.384Z,101333.56
2018-12-27T08:08:03.154Z,101329.26
2018-12-27T08:13:06.923Z,101333.55
2018-12-27T08:18:10.691Z,101338.54
2018-12-27T08:23:14.464Z,101336.81
2018-12-27T08:28:18.216Z,101336.81
2018-12-27T08:33:21.979Z,101314.50
2018-12-27T08:38:25.749Z,101314.50
2018-12-27T08:43:29.511Z,101360.98
2018-12-27T08:48:33.286Z,101352.16
2018-12-27T08:53:37.070Z,101352.16
2018-12-27T08:58:40.826Z,101344.97
2018-12-27T09:03:44.591Z,101344.59
2018-12-27T09:08:48.354Z,101351.11
2018-12-27T09:13:52.117Z,101351.69
2018-12-27T09:18:55.879Z,101354.57
2018-12-27T09:23:59.649Z,101353.02
2018-12-27T09:29:03.413Z,101353.02
2018-12-27T09:34:07.168Z,101351.86
2018-12-27T09:39:10.937Z,101354.16
2018-12-27T09:44:14.697Z,101350.28
2018-12-27T09:49:18.459Z,101350.28
2018-12-27T09:54:22.238Z,101353.37
2018-12-27T09:59:26.091Z,101357.11
2018-12-27T10:04:29.854Z,101357.11
2018-12-27T10:09:33.612Z,101355.77
2018-12-27T10:14:37.366Z,101352.53
2018-12-27T10:19:41.141Z,101348.51
2018-12-27T10:24:44.946Z,101333.82
2018-12-27T10:29:48.703Z,101333.82
2018-12-27T10:34:52.480Z,101326.53
2018-12-27T10:39:56.318Z,101296.95
2018-12-27T10:45:00.082Z,101292.51
2018-12-27T10:50:04.483Z,101291.25
2018-12-27T10:55:08.331Z,101291.25
2018-12-27T11:00:12.670Z,101287.41
2018-12-27T11:05:16.421Z,101273.22
2018-12-27T11:10:20.181Z,101256.18
2018-12-27T11:15:23.937Z,101256.18
2018-12-27T11:20:27.709Z,101242.49
2018-12-27T11:25:31.477Z,101235.30
2018-12-27T11:30:35.457Z,101223.81
2018-12-27T11:35:39.206Z,101225.81
2018-12-27T11:40:42.978Z,101225.81
2018-12-27T11:45:46.747Z,101214.70
2018-12-27T11:50:50.507Z,101214.70
2018-12-27T11:55:54.262Z,101207.81
2018-12-27T12:00:58.016Z,101201.11
2018-12-27T12:06:03.308Z,101199.08
2018-12-27T12:11:07.423Z,101199.08
2018-12-27T12:16:11.192Z,101197.56
2018-12-27T12:43:58.727Z,101170.12
2018-12-27T12:49:02.503Z,101185.66
2018-12-27T12:54:06.574Z,101182.13
2018-12-27T13:04:41.012Z,101170.84
2018-12-27T13:09:44.795Z,101168.16
2018-12-27T13:14:48.569Z,101171.70
2018-12-27T13:19:52.343Z,101167.74
2018-12-27T13:24:56.128Z,101167.74
2018-12-27T13:29:59.902Z,101171.49
2018-12-27T13:35:03.747Z,101177.89
2018-12-27T13:40:07.763Z,101172.25
2018-12-27T13:45:11.531Z,101174.55
2018-12-27T13:50:15.306Z,101174.55
2018-12-27T13:55:19.069Z,101157.87
2018-12-27T14:00:22.854Z,101157.39
2018-12-27T14:05:26.712Z,101157.39
2018-12-27T14:10:30.487Z,101159.69
2018-12-27T14:15:34.259Z,101169.56
2018-12-27T14:20:38.025Z,101175.69
2018-12-27T14:25:41.799Z,101179.50
2018-12-27T14:30:45.589Z,101179.50
2018-12-27T14:35:49.399Z,101186.80
2018-12-27T14:40:53.170Z,101186.80
2018-12-27T14:45:56.947Z,101187.00
2018-12-27T14:51:00.752Z,101192.47
2018-12-27T14:56:04.529Z,101200.41
2018-12-27T15:01:08.306Z,101200.41
2018-12-27T15:06:12.081Z,101202.02
2018-12-27T15:11:15.868Z,101202.02
2018-12-27T15:16:19.640Z,101200.50
2018-12-27T15:21:23.427Z,101200.98
2018-12-27T15:26:27.210Z,101190.84
2018-12-27T15:31:30.986Z,101180.28
2018-12-27T15:36:34.755Z,101180.28
2018-12-27T15:41:38.525Z,101169.55
2018-12-27T15:46:42.299Z,101179.90
2018-12-27T15:51:46.076Z,101178.28
2018-12-27T15:56:49.846Z,101182.69
2018-12-27T16:01:53.662Z,101178.56
2018-12-27T16:07:01.655Z,101178.56
2018-12-27T16:12:02.966Z,101179.42
2018-12-27T16:17:06.734Z,101183.27
2018-12-27T16:22:10.512Z,101188.25
2018-12-27T16:27:14.326Z,101188.33
2018-12-27T16:32:18.126Z,101191.39
2018-12-27T16:37:21.918Z,101184.69
2018-12-27T16:42:25.682Z,101182.97
2018-12-27T16:47:29.463Z,101180.39
2018-12-27T16:52:33.238Z,101178.09
2018-12-27T16:57:37.011Z,101178.95
2018-12-27T17:02:40.793Z,101178.95
2018-12-27T17:07:44.598Z,101187.86
2018-12-27T17:12:48.382Z,101186.52
2018-12-27T17:17:52.177Z,101186.52
2018-12-27T17:22:55.956Z,101188.17
2018-12-27T17:27:59.750Z,101186.73
2018-12-27T17:33:03.545Z,101186.73
2018-12-27T17:38:07.335Z,101173.69
2018-12-27T17:43:11.118Z,101177.41
2018-12-27T17:48:14.901Z,101177.41
2018-12-27T17:53:18.762Z,101176.47
2018-12-27T17:58:22.549Z,101180.21
2018-12-27T18:03:26.329Z,101171.00
2018-12-27T18:08:30.117Z,101173.67
2018-12-27T18:13:33.921Z,101166.03
2018-12-27T18:18:37.713Z,101169.48
2018-12-27T18:23:41.499Z,101169.48
2018-12-27T18:28:45.281Z,101179.73
2018-12-27T18:33:49.077Z,101179.72
2018-12-27T18:38:52.934Z,101179.23
2018-12-27T18:43:56.803Z,101181.92
2018-12-27T18:49:00.600Z,101174.36
2018-12-27T18:54:04.399Z,101169.64
2018-12-27T18:59:08.235Z,101174.84
2018-12-27T19:04:12.032Z,101172.26
2018-12-27T19:09:15.831Z,101172.26
2018-12-27T19:14:19.621Z,101166.10
2018-12-27T19:19:23.453Z,101166.10
2018-12-27T19:24:27.257Z,101170.23
2018-12-27T19:29:31.045Z,101165.93
2018-12-27T19:34:34.871Z,101165.93
2018-12-27T19:39:38.760Z,101162.20
2018-12-27T19:44:42.578Z,101158.55
2018-12-27T19:49:46.386Z,101159.00
2018-12-27T19:54:50.169Z,101159.00
2018-12-27T19:59:53.975Z,101157.77
2018-12-27T20:04:57.743Z,101162.75
2018-12-27T20:10:02.967Z,101157.28
2018-12-27T20:15:06.989Z,101155.87
2018-12-27T20:20:10.785Z,101148.59
2018-12-27T20:25:14.567Z,101151.75
2018-12-27T20:30:18.342Z,101152.61
2018-12-27T20:35:22.152Z,101146.38
2018-12-27T20:40:25.998Z,101145.90
2018-12-27T20:45:29.790Z,101147.99
2018-12-27T20:50:33.568Z,101143.48
2018-12-27T20:55:37.385Z,101143.48
2018-12-27T21:00:41.222Z,101134.80
2018-12-27T21:05:45.004Z,101146.69
2018-12-27T21:10:49.342Z,101146.69
2018-12-27T21:15:53.127Z,101155.94
2018-12-27T21:20:56.918Z,101158.24
2018-12-27T21:26:00.702Z,101154.80
2018-12-27T21:31:04.474Z,101157.01
2018-12-27T21:36:08.266Z,101154.59
2018-12-27T21:41:12.103Z,101149.81
2018-12-27T21:46:15.863Z,101149.81
2018-12-27T21:51:19.650Z,101141.77
2018-12-27T21:56:23.487Z,101148.95
2018-12-27T22:01:27.275Z,101147.61
2018-12-27T22:06:31.067Z,101147.61
2018-12-27T22:11:34.864Z,101159.20
2018-12-27T22:16:38.649Z,101159.20
2018-12-27T22:21:42.451Z,101144.83
2018-12-27T22:26:46.247Z,101140.32
2018-12-27T22:31:50.958Z,101139.77
2018-12-27T22:36:54.817Z,101139.77
2018-12-27T22:41:58.629Z,101137.64
2018-12-27T22:47:02.425Z,101132.09
2018-12-27T22:52:06.227Z,101132.09
2018-12-27T22:57:10.016Z,101125.97
2018-12-27T23:02:13.831Z,101126.14
2018-12-27T23:07:17.646Z,101130.86
2018-12-27T23:12:21.459Z,101124.14
2018-12-27T23:17:25.248Z,101127.97
2018-12-27T23:22:29.094Z,101125.87
2018-12-27T23:27:32.897Z,101120.50
2018-12-27T23:32:36.694Z,101117.13
2018-12-27T23:37:40.482Z,101113.69
2018-12-27T23:42:44.289Z,101110.42
2018-12-27T23:47:48.087Z,101110.42
2018-12-27T23:52:51.884Z,101113.97
2018-12-27T23:57:56.771Z,101109.56
